createdAt,value
2023-02-02T00:01:52.134Z,8.08
2023-02-02T00:04:24.690Z,8.10
2023-02-02T00:06:53.468Z,8.09
2023-02-02T00:09:22.775Z,8.14
2023-02-02T00:11:52.374Z,8.13
2023-02-02T00:14:23.982Z,8.17
2023-02-02T00:16:54.454Z,8.20
2023-02-02T00:19:26.964Z,8.21
2023-02-02T00:21:56.216Z,8.22
2023-02-02T00:24:25.954Z,8.24
2023-02-02T00:26:58.943Z,8.28
2023-02-02T00:29:29.398Z,8.28
2023-02-02T00:31:58.424Z,8.29
2023-02-02T00:34:28.559Z,8.35
2023-02-02T00:36:56.889Z,8.38
2023-02-02T00:39:27.581Z,8.34
2023-02-02T00:41:57.619Z,8.45
2023-02-02T00:44:55.105Z,8.35
2023-02-02T00:47:23.965Z,8.39
2023-02-02T00:49:54.065Z,8.34
2023-02-02T00:52:22.935Z,8.39
2023-02-02T00:54:51.435Z,8.38
2023-02-02T00:57:19.738Z,8.36
2023-02-02T00:59:53.220Z,8.47
2023-02-02T01:02:21.694Z,8.44
2023-02-02T01:04:50.237Z,8.46
2023-02-02T01:07:21.446Z,8.47
2023-02-02T01:09:50.020Z,8.42
2023-02-02T01:12:18.647Z,8.47
2023-02-02T01:14:47.358Z,8.48
2023-02-02T01:17:16.115Z,8.48
2023-02-02T01:19:44.675Z,8.49
2023-02-02T01:22:13.262Z,8.51
2023-02-02T01:24:43.659Z,8.52
2023-02-02T01:27:12.278Z,8.52
2023-02-02T01:29:40.704Z,8.52
2023-02-02T01:32:09.247Z,8.52
2023-02-02T01:34:42.131Z,8.49
2023-02-02T01:37:11.739Z,8.54
2023-02-02T01:39:40.426Z,8.55
2023-02-02T01:42:15.624Z,8.56
2023-02-02T01:45:19.084Z,8.54
2023-02-02T01:47:50.847Z,8.54
2023-02-02T01:50:22.319Z,8.54
2023-02-02T01:52:53.939Z,8.54
2023-02-02T01:55:26.518Z,8.55
2023-02-02T01:58:06.508Z,8.55
2023-02-02T02:00:35.083Z,8.57
2023-02-02T02:03:08.373Z,8.58
2023-02-02T02:05:43.266Z,8.60
2023-02-02T02:08:17.156Z,8.61
2023-02-02T02:10:45.766Z,8.60
2023-02-02T02:13:18.191Z,8.71
2023-02-02T02:16:12.801Z,8.71
2023-02-02T02:18:50.595Z,8.64
2023-02-02T02:22:00.870Z,8.64
2023-02-02T02:25:30.234Z,8.69
2023-02-02T02:28:48.473Z,8.60
2023-02-02T02:32:00.133Z,8.56
2023-02-02T02:34:38.144Z,8.53
2023-02-02T02:37:12.287Z,8.50
2023-02-02T02:39:47.168Z,8.49
2023-02-02T02:42:20.389Z,8.45
2023-02-02T02:44:50.995Z,8.47
2023-02-02T02:47:22.563Z,8.47
2023-02-02T02:49:51.683Z,8.46
2023-02-02T02:52:20.147Z,8.48
2023-02-02T02:54:52.046Z,8.48
2023-02-02T02:57:43.177Z,8.53
2023-02-02T03:00:28.408Z,8.54
2023-02-02T03:03:07.094Z,8.55
2023-02-02T03:05:45.237Z,8.53
2023-02-02T03:08:21.173Z,8.51
2023-02-02T03:10:50.602Z,8.50
2023-02-02T03:13:19.864Z,8.47
2023-02-02T03:15:48.783Z,8.49
2023-02-02T03:18:22.822Z,8.52
2023-02-02T03:20:51.276Z,8.52
2023-02-02T03:23:19.984Z,8.54
2023-02-02T03:25:49.033Z,8.52
2023-02-02T03:28:19.530Z,8.51
2023-02-02T03:30:50.421Z,8.48
2023-02-02T03:33:21.067Z,8.46
2023-02-02T03:35:49.545Z,8.43
2023-02-02T03:38:18.019Z,8.39
2023-02-02T03:40:46.634Z,8.37
2023-02-02T03:43:15.237Z,8.36
2023-02-02T03:45:43.897Z,8.35
2023-02-02T03:48:14.465Z,8.32
2023-02-02T03:50:45.315Z,8.29
2023-02-02T03:53:14.164Z,8.29
2023-02-02T03:55:43.060Z,8.28
2023-02-02T03:58:11.656Z,8.29
2023-02-02T04:00:40.527Z,8.29
2023-02-02T04:03:09.280Z,8.27
2023-02-02T04:05:37.641Z,8.29
2023-02-02T04:08:08.209Z,8.32
2023-02-02T04:10:36.863Z,8.32
2023-02-02T04:13:05.857Z,8.34
2023-02-02T04:15:34.348Z,8.38
2023-02-02T04:18:04.160Z,8.40
2023-02-02T04:20:32.930Z,8.40
2023-02-02T04:23:01.446Z,8.40
2023-02-02T04:25:31.733Z,8.45
2023-02-02T04:28:01.380Z,8.45
2023-02-02T04:30:31.039Z,8.47
2023-02-02T04:32:59.746Z,8.47
2023-02-02T04:35:28.585Z,8.45
2023-02-02T04:37:57.248Z,8.43
2023-02-02T04:40:26.246Z,8.42
2023-02-02T04:42:56.365Z,8.42
2023-02-02T04:45:25.357Z,8.42
2023-02-02T04:47:55.503Z,8.42
2023-02-02T04:50:24.964Z,8.43
2023-02-02T04:52:53.833Z,8.44
2023-02-02T04:55:22.970Z,8.46
2023-02-02T04:57:51.874Z,8.46
2023-02-02T05:00:22.239Z,8.49
2023-02-02T05:02:50.965Z,8.49
2023-02-02T05:05:20.813Z,8.51
2023-02-02T05:07:49.231Z,8.51
2023-02-02T05:10:18.439Z,8.52
2023-02-02T05:12:47.053Z,8.48
2023-02-02T05:15:15.749Z,8.44
2023-02-02T05:17:46.036Z,8.42
2023-02-02T05:20:15.114Z,8.39
2023-02-02T05:22:43.800Z,8.36
2023-02-02T05:25:12.536Z,8.37
2023-02-02T05:27:41.318Z,8.38
2023-02-02T05:30:13.304Z,8.39
2023-02-02T05:32:44.849Z,8.37
2023-02-02T05:35:13.787Z,8.37
2023-02-02T05:37:44.701Z,8.40
2023-02-02T05:40:14.619Z,8.42
2023-02-02T05:42:43.286Z,8.49
2023-02-02T05:45:12.930Z,8.51
2023-02-02T05:47:41.545Z,8.50
2023-02-02T05:50:12.472Z,8.57
2023-02-02T05:52:42.814Z,8.57
2023-02-02T05:55:12.133Z,8.59
2023-02-02T05:57:40.648Z,8.58
2023-02-02T06:00:10.587Z,8.51
2023-02-02T06:02:39.274Z,8.44
2023-02-02T06:05:09.140Z,8.39
2023-02-02T06:07:38.914Z,8.37
2023-02-02T06:10:07.720Z,8.35
2023-02-02T06:12:36.391Z,8.37
2023-02-02T06:15:05.522Z,8.38
2023-02-02T06:17:34.864Z,8.42
2023-02-02T06:20:03.436Z,8.43
2023-02-02T06:22:34.506Z,8.43
2023-02-02T06:25:08.315Z,8.40
2023-02-02T06:27:36.883Z,8.40
2023-02-02T06:30:06.017Z,8.41
2023-02-02T06:32:34.422Z,8.43
2023-02-02T06:35:02.851Z,8.44
2023-02-02T06:37:31.772Z,8.43
2023-02-02T06:40:00.313Z,8.38
2023-02-02T06:42:30.959Z,8.34
2023-02-02T06:45:00.038Z,8.31
2023-02-02T06:47:28.697Z,8.28
2023-02-02T06:49:57.327Z,8.23
2023-02-02T06:52:25.889Z,8.18
2023-02-02T06:54:54.322Z,8.22
2023-02-02T06:57:22.781Z,8.24
2023-02-02T06:59:52.852Z,8.24
2023-02-02T07:02:23.796Z,8.25
2023-02-02T07:04:53.282Z,8.24
2023-02-02T07:07:21.599Z,8.27
2023-02-02T07:09:58.066Z,8.25
2023-02-02T07:12:27.417Z,8.24
2023-02-02T07:14:59.810Z,8.25
2023-02-02T07:17:28.462Z,8.26
2023-02-02T07:19:57.145Z,8.23
2023-02-02T07:22:25.772Z,8.17
2023-02-02T07:24:54.415Z,8.18
2023-02-02T07:27:22.951Z,8.17
2023-02-02T07:29:51.552Z,8.19
2023-02-02T07:32:21.462Z,8.18
2023-02-02T07:34:51.739Z,8.18
2023-02-02T07:37:20.225Z,8.22
2023-02-02T07:39:48.833Z,8.24
2023-02-02T07:42:17.313Z,8.29
2023-02-02T07:44:46.268Z,8.36
2023-02-02T07:47:14.753Z,8.39
2023-02-02T07:49:46.370Z,8.35
2023-02-02T07:52:15.993Z,8.27
2023-02-02T07:54:44.596Z,8.16
2023-02-02T07:57:14.112Z,8.08
2023-02-02T07:59:42.372Z,8.06
2023-02-02T08:02:12.497Z,8.08
2023-02-02T08:04:41.069Z,8.08
2023-02-02T08:07:11.448Z,8.09
2023-02-02T08:09:40.041Z,8.10
2023-02-02T08:12:08.861Z,8.14
2023-02-02T08:14:37.842Z,8.14
2023-02-02T08:17:06.569Z,8.15
2023-02-02T08:19:34.960Z,8.14
2023-02-02T08:22:03.899Z,8.12
2023-02-02T08:24:34.253Z,8.11
2023-02-02T08:27:02.920Z,8.14
2023-02-02T08:29:43.879Z,8.12
2023-02-02T08:32:12.550Z,8.15
2023-02-02T08:34:42.021Z,8.20
2023-02-02T08:37:10.871Z,8.25
2023-02-02T08:39:42.203Z,8.28
2023-02-02T08:42:10.963Z,8.31
2023-02-02T08:44:44.921Z,8.37
2023-02-02T08:47:31.144Z,8.41
2023-02-02T08:49:59.958Z,8.44
2023-02-02T08:52:28.607Z,8.49
2023-02-02T08:55:48.986Z,8.46
2023-02-02T08:58:19.083Z,8.46
2023-02-02T09:00:47.842Z,8.48
2023-02-02T09:03:17.663Z,8.47
2023-02-02T09:05:48.280Z,8.53
2023-02-02T09:08:16.612Z,8.56
2023-02-02T09:10:45.191Z,8.55
2023-02-02T09:13:13.585Z,8.55
2023-02-02T09:15:44.195Z,8.52
2023-02-02T09:18:14.490Z,8.50
2023-02-02T09:20:46.120Z,8.48
2023-02-02T09:23:14.689Z,8.50
2023-02-02T09:25:45.599Z,8.55
2023-02-02T09:28:14.448Z,8.61
2023-02-02T09:30:44.604Z,8.65
2023-02-02T09:33:13.626Z,8.70
2023-02-02T09:35:42.424Z,8.75
2023-02-02T09:38:13.871Z,8.73
2023-02-02T09:40:43.317Z,8.78
2023-02-02T09:43:29.086Z,8.78
2023-02-02T09:46:10.148Z,8.80
2023-02-02T09:48:47.645Z,8.82
2023-02-02T09:51:23.397Z,8.81
2023-02-02T09:53:57.256Z,8.83
2023-02-02T09:56:32.552Z,8.78
2023-02-02T09:59:18.796Z,8.81
2023-02-02T10:01:57.777Z,8.76
2023-02-02T10:04:35.853Z,8.81
2023-02-02T10:07:11.488Z,8.84
2023-02-02T10:09:44.864Z,8.89
2023-02-02T10:12:29.674Z,8.92
2023-02-02T10:15:05.609Z,8.91
2023-02-02T10:17:43.905Z,8.80
2023-02-02T10:20:32.208Z,8.79
2023-02-02T10:23:10.327Z,8.82
2023-02-02T10:25:42.192Z,8.85
2023-02-02T10:28:19.955Z,8.90
2023-02-02T10:30:57.262Z,8.97
2023-02-02T10:33:39.276Z,9.02
2023-02-02T10:36:18.466Z,9.14
2023-02-02T10:38:56.503Z,9.10
2023-02-02T10:41:36.573Z,9.06
2023-02-02T10:44:17.706Z,8.99
2023-02-02T10:46:51.516Z,8.91
2023-02-02T10:49:31.229Z,8.80
2023-02-02T10:52:08.109Z,8.80
2023-02-02T10:54:56.499Z,8.82
2023-02-02T10:57:46.075Z,8.80
2023-02-02T11:00:23.328Z,8.82
2023-02-02T11:02:53.870Z,8.83
2023-02-02T11:05:43.846Z,8.87
2023-02-02T11:08:18.887Z,8.89
2023-02-02T11:10:51.157Z,8.88
2023-02-02T11:13:30.378Z,8.94
2023-02-02T11:16:41.318Z,9.00
2023-02-02T11:19:29.976Z,9.01
2023-02-02T11:22:02.889Z,9.05
2023-02-02T11:24:36.866Z,9.09
2023-02-02T11:27:09.419Z,9.10
2023-02-02T11:29:45.375Z,9.14
2023-02-02T11:32:23.730Z,9.22
2023-02-02T11:35:16.666Z,9.28
2023-02-02T11:38:01.319Z,9.34
2023-02-02T11:40:33.346Z,9.40
2023-02-02T11:43:06.299Z,9.45
2023-02-02T11:45:39.682Z,9.46
2023-02-02T11:48:18.462Z,9.48
2023-02-02T11:50:49.634Z,9.57
2023-02-02T11:53:28.460Z,9.58
2023-02-02T11:55:59.923Z,9.60
2023-02-02T11:58:29.657Z,9.62
2023-02-02T12:01:02.371Z,9.67
2023-02-02T12:03:37.542Z,9.65
2023-02-02T12:06:21.591Z,9.70
2023-02-02T12:08:54.568Z,9.69
2023-02-02T12:11:37.242Z,9.71
2023-02-02T12:14:31.924Z,9.74
2023-02-02T12:17:13.113Z,9.82
2023-02-02T12:19:57.636Z,9.85
2023-02-02T12:22:45.662Z,9.83
2023-02-02T12:25:34.209Z,9.84
2023-02-02T12:28:13.062Z,9.85
2023-02-02T12:30:45.173Z,9.77
2023-02-02T12:33:30.642Z,9.65
2023-02-02T12:36:44.674Z,9.49
2023-02-02T12:39:32.745Z,9.41
2023-02-02T12:42:28.440Z,9.42
2023-02-02T12:45:17.536Z,9.41
2023-02-02T12:47:57.237Z,9.45
2023-02-02T12:50:33.279Z,9.55
2023-02-02T12:53:22.209Z,9.63
2023-02-02T12:55:59.402Z,9.66
2023-02-02T12:58:38.650Z,9.75
2023-02-02T13:01:32.500Z,9.79
2023-02-02T13:04:12.209Z,9.81
2023-02-02T13:07:11.064Z,9.75
2023-02-02T13:09:47.438Z,9.79
2023-02-02T13:12:20.424Z,9.80
2023-02-02T13:14:55.472Z,9.76
2023-02-02T13:17:30.839Z,9.67
2023-02-02T13:20:06.724Z,9.63
2023-02-02T13:22:41.515Z,9.55
2023-02-02T13:25:22.675Z,9.53
2023-02-02T13:27:55.368Z,9.53
2023-02-02T13:30:32.421Z,9.62
2023-02-02T13:33:04.745Z,9.69
2023-02-02T13:35:36.983Z,9.69
2023-02-02T13:38:16.799Z,9.75
2023-02-02T13:40:46.277Z,9.84
2023-02-02T13:43:36.234Z,9.85
2023-02-02T13:46:18.377Z,9.84
2023-02-02T13:48:58.240Z,9.87
2023-02-02T13:51:51.508Z,9.90
2023-02-02T13:55:11.633Z,9.83
2023-02-02T13:58:05.514Z,9.79
2023-02-02T14:00:37.675Z,9.53
2023-02-02T14:03:27.872Z,9.41
2023-02-02T14:06:09.904Z,9.37
2023-02-02T14:08:39.533Z,9.28
2023-02-02T14:11:09.784Z,9.25
2023-02-02T14:14:03.853Z,9.21
2023-02-02T14:16:51.197Z,9.09
2023-02-02T14:19:55.581Z,9.07
2023-02-02T14:22:44.881Z,9.03
2023-02-02T14:25:55.885Z,9.04
2023-02-02T14:28:49.085Z,9.06
2023-02-02T14:31:31.858Z,9.11
2023-02-02T14:34:31.135Z,9.14
2023-02-02T14:37:31.180Z,9.21
2023-02-02T14:40:12.943Z,9.21
2023-02-02T14:43:13.121Z,9.23
2023-02-02T14:45:42.535Z,9.25
2023-02-02T14:48:17.717Z,9.16
2023-02-02T14:50:52.964Z,9.01
2023-02-02T14:53:25.808Z,8.82
2023-02-02T14:55:59.938Z,8.79
2023-02-02T14:58:34.254Z,8.80
2023-02-02T15:01:10.493Z,8.83
2023-02-02T15:03:49.556Z,8.90
2023-02-02T15:06:33.226Z,8.98
2023-02-02T15:09:36.811Z,9.06
2023-02-02T15:12:27.736Z,9.15
2023-02-02T15:15:05.416Z,9.17
2023-02-02T15:17:44.623Z,9.20
2023-02-02T15:20:21.382Z,9.26
2023-02-02T15:22:59.114Z,9.31
2023-02-02T15:25:32.676Z,9.35
2023-02-02T15:28:11.724Z,9.40
2023-02-02T15:30:45.264Z,9.44
2023-02-02T15:33:25.653Z,9.49
2023-02-02T15:35:55.461Z,9.51
2023-02-02T15:38:34.950Z,9.55
2023-02-02T15:41:09.553Z,9.55
2023-02-02T15:43:38.664Z,9.56
2023-02-02T15:46:11.601Z,9.55
2023-02-02T15:48:40.346Z,9.53
2023-02-02T15:51:17.742Z,9.52
2023-02-02T15:53:52.973Z,9.51
2023-02-02T15:56:32.234Z,9.52
2023-02-02T15:59:02.252Z,9.54
2023-02-02T16:01:46.646Z,9.48
2023-02-02T16:04:19.192Z,9.52
2023-02-02T16:06:49.995Z,9.51
2023-02-02T16:09:26.319Z,9.50
2023-02-02T16:11:55.426Z,9.51
2023-02-02T16:14:25.626Z,9.51
2023-02-02T16:16:54.632Z,9.49
2023-02-02T16:19:24.846Z,9.46
2023-02-02T16:21:59.614Z,9.46
2023-02-02T16:24:33.392Z,9.44
2023-02-02T16:27:06.389Z,9.46
2023-02-02T16:29:36.401Z,9.45
2023-02-02T16:32:06.679Z,9.45
2023-02-02T16:34:47.827Z,9.42
2023-02-02T16:37:18.898Z,9.42
2023-02-02T16:39:48.829Z,9.44
2023-02-02T16:42:26.719Z,9.48
2023-02-02T16:44:56.218Z,9.48
2023-02-02T16:47:38.073Z,9.50
2023-02-02T16:50:31.533Z,9.43
2023-02-02T16:53:04.138Z,9.39
2023-02-02T16:55:49.823Z,9.39
2023-02-02T16:58:24.517Z,9.45
2023-02-02T17:01:13.973Z,9.41
2023-02-02T17:03:51.354Z,9.37
2023-02-02T17:06:45.831Z,9.33
2023-02-02T17:09:35.694Z,9.29
2023-02-02T17:12:14.272Z,9.22
2023-02-02T17:14:53.596Z,9.24
2023-02-02T17:17:23.029Z,9.31
2023-02-02T17:19:51.823Z,9.38
2023-02-02T17:22:23.615Z,9.33
2023-02-02T17:24:53.932Z,9.41
2023-02-02T17:27:28.935Z,9.42
2023-02-02T17:29:58.845Z,9.40
2023-02-02T17:32:27.267Z,9.41
2023-02-02T17:34:55.593Z,9.47
2023-02-02T17:37:23.897Z,9.30
2023-02-02T17:39:52.791Z,9.02
2023-02-02T17:42:26.831Z,8.86
2023-02-02T17:44:55.504Z,8.82
2023-02-02T17:47:24.105Z,8.79
2023-02-02T17:49:53.112Z,8.78
2023-02-02T17:52:22.066Z,8.74
2023-02-02T17:54:50.697Z,8.80
2023-02-02T17:57:19.323Z,8.81
2023-02-02T17:59:49.468Z,8.84
2023-02-02T18:02:18.816Z,8.88
2023-02-02T18:04:47.515Z,8.95
2023-02-02T18:07:16.003Z,9.01
2023-02-02T18:09:44.564Z,8.98
2023-02-02T18:12:13.306Z,8.98
2023-02-02T18:14:41.905Z,8.98
2023-02-02T18:17:11.905Z,9.04
2023-02-02T18:19:44.950Z,9.10
2023-02-02T18:22:15.659Z,9.16
2023-02-02T18:24:44.245Z,9.15
2023-02-02T18:27:13.032Z,9.20
2023-02-02T18:29:41.519Z,9.25
2023-02-02T18:32:11.676Z,9.29
2023-02-02T18:34:40.380Z,9.30
2023-02-02T18:37:09.821Z,9.27
2023-02-02T18:39:39.459Z,9.20
2023-02-02T18:42:08.202Z,9.16
2023-02-02T18:44:38.763Z,9.11
2023-02-02T18:47:08.415Z,9.04
2023-02-02T18:49:38.509Z,8.95
2023-02-02T18:52:07.236Z,8.83
2023-02-02T18:54:36.027Z,8.82
2023-02-02T18:57:05.336Z,8.78
2023-02-02T18:59:36.333Z,8.75
2023-02-02T19:02:05.126Z,8.71
2023-02-02T19:04:33.710Z,8.73
2023-02-02T19:07:21.168Z,8.78
2023-02-02T19:09:49.911Z,8.75
2023-02-02T19:12:19.751Z,8.73
2023-02-02T19:14:48.608Z,8.78
2023-02-02T19:17:24.844Z,8.79
2023-02-02T19:19:55.287Z,8.78
2023-02-02T19:22:30.809Z,8.81
2023-02-02T19:25:00.625Z,8.81
2023-02-02T19:27:29.475Z,8.87
2023-02-02T19:30:03.467Z,8.94
2023-02-02T19:32:35.259Z,9.04
2023-02-02T19:35:05.987Z,9.09
2023-02-02T19:37:40.292Z,9.08
2023-02-02T19:40:21.954Z,9.09
2023-02-02T19:42:55.792Z,9.06
2023-02-02T19:45:29.054Z,8.98
2023-02-02T19:48:03.705Z,8.94
2023-02-02T19:50:41.188Z,8.91
2023-02-02T19:53:20.857Z,8.91
2023-02-02T19:55:49.679Z,8.88
2023-02-02T19:58:21.874Z,8.91
2023-02-02T20:00:53.888Z,8.93
2023-02-02T20:03:25.819Z,8.95
2023-02-02T20:05:56.340Z,8.94
2023-02-02T20:08:30.265Z,8.97
2023-02-02T20:11:02.368Z,9.03
2023-02-02T20:13:40.310Z,9.04
2023-02-02T20:16:17.291Z,9.07
2023-02-02T20:18:48.710Z,9.10
2023-02-02T20:21:24.030Z,9.10
2023-02-02T20:23:54.499Z,9.14
2023-02-02T20:26:27.092Z,9.12
2023-02-02T20:28:59.167Z,9.15
2023-02-02T20:31:36.314Z,9.15
2023-02-02T20:34:21.932Z,9.20
2023-02-02T20:36:51.398Z,9.18
2023-02-02T20:39:35.588Z,9.23
2023-02-02T20:42:05.501Z,9.22
2023-02-02T20:44:37.965Z,9.27
2023-02-02T20:47:08.287Z,9.31
2023-02-02T20:49:39.204Z,9.26
2023-02-02T20:52:12.834Z,9.27
2023-02-02T20:54:43.051Z,9.25
2023-02-02T20:57:11.774Z,9.25
2023-02-02T20:59:40.172Z,9.18
2023-02-02T21:02:10.854Z,9.12
2023-02-02T21:04:39.581Z,9.11
2023-02-02T21:07:08.453Z,9.09
2023-02-02T21:09:37.612Z,9.08
2023-02-02T21:12:07.857Z,9.09
2023-02-02T21:14:36.922Z,9.10
2023-02-02T21:17:14.952Z,9.12
2023-02-02T21:19:45.362Z,9.15
2023-02-02T21:22:15.028Z,9.16
2023-02-02T21:24:43.242Z,9.19
2023-02-02T21:27:13.520Z,9.27
2023-02-02T21:29:42.203Z,9.23
2023-02-02T21:32:10.771Z,9.19
2023-02-02T21:34:39.355Z,9.16
2023-02-02T21:37:14.174Z,9.18
2023-02-02T21:39:48.848Z,9.14
2023-02-02T21:42:21.397Z,9.11
2023-02-02T21:44:54.449Z,9.15
2023-02-02T21:47:34.127Z,9.13
2023-02-02T21:50:16.210Z,9.22
2023-02-02T21:52:45.302Z,9.15
2023-02-02T21:55:36.162Z,9.16
2023-02-02T21:58:18.873Z,9.18
2023-02-02T22:00:48.307Z,9.17
2023-02-02T22:03:35.985Z,9.18
2023-02-02T22:06:24.730Z,9.28
2023-02-02T22:08:55.653Z,9.26
2023-02-02T22:11:29.932Z,9.25
2023-02-02T22:14:17.039Z,9.25
2023-02-02T22:16:50.701Z,9.25
2023-02-02T22:19:36.799Z,9.31
2023-02-02T22:22:20.568Z,9.34
2023-02-02T22:24:58.764Z,9.32
2023-02-02T22:27:42.342Z,9.34
2023-02-02T22:30:25.190Z,9.33
2023-02-02T22:32:56.406Z,9.33
2023-02-02T22:35:24.888Z,9.38
2023-02-02T22:37:53.628Z,9.36
2023-02-02T22:40:24.281Z,9.32
2023-02-02T22:42:55.632Z,9.40
2023-02-02T22:45:27.129Z,9.43
2023-02-02T22:47:56.130Z,9.41
2023-02-02T22:50:27.042Z,9.48
2023-02-02T22:52:56.230Z,9.52
2023-02-02T22:55:25.396Z,9.52
2023-02-02T22:57:54.265Z,9.54
2023-02-02T23:00:25.351Z,9.51
2023-02-02T23:02:57.116Z,9.55
2023-02-02T23:05:27.654Z,9.58
2023-02-02T23:07:57.739Z,9.57
2023-02-02T23:10:29.669Z,9.62
2023-02-02T23:12:59.502Z,9.65
2023-02-02T23:15:30.930Z,9.63
2023-02-02T23:18:01.145Z,9.63
2023-02-02T23:20:42.208Z,9.64
2023-02-02T23:23:10.802Z,9.65
2023-02-02T23:25:39.854Z,9.64
2023-02-02T23:28:10.723Z,9.61
2023-02-02T23:30:39.337Z,9.63
2023-02-02T23:33:09.670Z,9.65
2023-02-02T23:35:38.514Z,9.63
2023-02-02T23:38:06.807Z,9.64
2023-02-02T23:40:35.562Z,9.66
2023-02-02T23:43:04.157Z,9.65
2023-02-02T23:45:33.173Z,9.66
2023-02-02T23:48:02.053Z,9.63
2023-02-02T23:50:38.667Z,9.67
2023-02-02T23:53:08.057Z,9.62
2023-02-02T23:55:36.984Z,9.60
2023-02-02T23:58:05.313Z,9.65
